Time;durP1;ratioP1;P1;durP2;ratioP2;P2;SDS_P1;SDS_P2;PMS_P1;PMS_P2;Temp;Humidity;BMP_temperature;BMP_pressure;BME280_temperature;BME280_humidity;BME280_pressure;Samples;Min_cycle;Max_cycle;Signal;HPM_P1;HPM_P2
2021/11/26 00:00:43;;;;;;;39.27;21.67;;;2.50;99.90;;;;;;5020340;28;20180;-81
2021/11/26 00:03:09;;;;;;;40.97;22.60;;;2.60;99.90;;;;;;5020239;28;20195;-81
2021/11/26 00:05:37;;;;;;;41.80;21.47;;;2.70;99.90;;;;;;5020029;28;20550;-81
2021/11/26 00:08:03;;;;;;;38.43;22.00;;;2.70;99.90;;;;;;5020108;28;20258;-81
2021/11/26 00:10:29;;;;;;;38.87;21.63;;;2.70;99.90;;;;;;5020069;28;20241;-81
2021/11/26 00:13:01;;;;;;;37.97;21.43;;;3.10;99.90;;;;;;5020186;28;20179;-81
2021/11/26 00:15:38;;;;;;;37.17;21.67;;;3.20;99.90;;;;;;5020334;28;20663;-81
2021/11/26 00:18:11;;;;;;;40.57;20.23;;;2.80;99.90;;;;;;5019741;28;20195;-81
2021/11/26 00:20:38;;;;;;;38.00;21.27;;;2.80;99.90;;;;;;5019614;28;20183;-81
2021/11/26 00:23:05;;;;;;;43.27;23.47;;;2.90;99.90;;;;;;5019423;28;20278;-82
2021/11/26 00:25:31;;;;;;;42.33;22.33;;;2.80;99.90;;;;;;5003792;28;20180;-81
2021/11/26 00:27:57;;;;;;;44.57;23.77;;;2.60;99.90;;;;;;4999634;28;20195;-81
2021/11/26 00:30:22;;;;;;;44.73;24.27;;;2.70;99.90;;;;;;5000490;28;20187;-80
2021/11/26 00:32:48;;;;;;;48.97;24.10;;;2.60;99.90;;;;;;4999630;28;20235;-81
2021/11/26 00:35:14;;;;;;;46.53;24.57;;;2.60;99.90;;;;;;5000018;28;20179;-81
2021/11/26 00:37:40;;;;;;;44.43;24.07;;;2.50;99.90;;;;;;4999678;28;20196;-80
2021/11/26 00:40:07;;;;;;;47.87;24.17;;;2.50;99.90;;;;;;4999833;28;20200;-81
2021/11/26 00:42:32;;;;;;;48.27;24.83;;;2.10;99.90;;;;;;5026312;28;20203;-80
2021/11/26 00:44:58;;;;;;;46.97;24.50;;;2.50;99.90;;;;;;5018645;28;20278;-81
2021/11/26 00:47:24;;;;;;;46.37;24.13;;;2.50;99.90;;;;;;5018803;28;20222;-80
2021/11/26 00:49:50;;;;;;;51.60;26.10;;;2.60;99.90;;;;;;5019213;28;20167;-81
2021/11/26 00:52:16;;;;;;;51.47;25.93;;;2.70;99.90;;;;;;5018480;28;20172;-80
2021/11/26 00:54:42;;;;;;;55.67;26.83;;;2.50;99.90;;;;;;5019671;28;20176;-81
2021/11/26 00:57:09;;;;;;;48.10;25.70;;;2.60;99.90;;;;;;5018239;28;20204;-81
2021/11/26 00:59:38;;;;;;;56.53;26.97;;;2.60;99.90;;;;;;5018885;28;20181;-80
2021/11/26 01:02:05;;;;;;;60.67;28.40;;;2.90;99.90;;;;;;5018977;28;20214;-80
2021/11/26 01:04:31;;;;;;;65.27;30.23;;;2.50;99.90;;;;;;5018812;28;20175;-80
2021/11/26 01:06:57;;;;;;;63.37;29.20;;;2.40;99.90;;;;;;5017349;28;20281;-80
2021/11/26 01:09:23;;;;;;;70.87;31.60;;;2.30;99.90;;;;;;5018884;28;20194;-82
2021/11/26 01:11:49;;;;;;;99.37;37.90;;;2.30;99.90;;;;;;5017313;28;20171;-80
2021/11/26 01:14:15;;;;;;;72.83;32.77;;;2.30;99.90;;;;;;5018455;28;20186;-81
2021/11/26 01:16:41;;;;;;;65.07;28.97;;;2.40;99.90;;;;;;5018230;28;20207;-81
2021/11/26 01:19:06;;;;;;;68.40;31.23;;;2.50;99.90;;;;;;5018804;28;20181;-81
2021/11/26 01:21:32;;;;;;;63.83;29.93;;;2.50;99.90;;;;;;5018392;28;20760;-80
2021/11/26 01:23:58;;;;;;;64.43;29.80;;;2.40;99.90;;;;;;5018950;28;20548;-81
2021/11/26 01:26:24;;;;;;;59.90;28.20;;;2.50;99.90;;;;;;5018185;28;20670;-80
2021/11/26 01:28:50;;;;;;;64.83;29.93;;;2.40;99.90;;;;;;5008087;28;20609;-80
2021/11/26 01:31:17;;;;;;;67.43;31.33;;;2.40;99.90;;;;;;5019051;28;20204;-80
2021/11/26 01:33:43;;;;;;;62.07;30.03;;;2.50;99.90;;;;;;5018538;28;20187;-79
2021/11/26 01:36:08;;;;;;;67.07;29.80;;;2.50;99.90;;;;;;5017145;28;20199;-82
2021/11/26 01:38:34;;;;;;;58.10;28.83;;;2.70;99.90;;;;;;5008722;28;20666;-80
2021/11/26 01:41:00;;;;;;;55.80;26.80;;;2.50;99.90;;;;;;5018646;28;20168;-80
2021/11/26 01:43:26;;;;;;;61.83;27.50;;;2.40;99.90;;;;;;5018434;28;20634;-81
2021/11/26 01:45:54;;;;;;;55.77;26.37;;;2.30;99.90;;;;;;5018190;28;20167;-81
2021/11/26 01:48:22;;;;;;;57.17;26.13;;;2.30;99.90;;;;;;5012432;28;20168;-81
2021/11/26 01:50:50;;;;;;;54.77;25.83;;;2.20;99.90;;;;;;4995176;28;20218;-81
2021/11/26 01:53:17;;;;;;;59.70;27.93;;;2.30;99.90;;;;;;4995386;28;20183;-79
2021/11/26 01:55:43;;;;;;;53.70;26.17;;;2.30;99.90;;;;;;4995772;28;20176;-81
2021/11/26 01:58:10;;;;;;;55.63;26.03;;;2.30;99.90;;;;;;4996980;28;20199;-80
2021/11/26 02:00:37;;;;;;;51.97;25.33;;;2.40;99.90;;;;;;4995464;28;20172;-81
2021/11/26 02:03:03;;;;;;;52.30;24.70;;;2.50;99.90;;;;;;4993911;28;20191;-80
2021/11/26 02:05:29;;;;;;;54.90;25.93;;;2.40;99.90;;;;;;4996340;28;20198;-81
2021/11/26 02:07:55;;;;;;;55.67;26.90;;;2.40;99.90;;;;;;4997006;28;20203;-82
2021/11/26 02:10:21;;;;;;;55.47;25.30;;;2.40;99.90;;;;;;4996505;28;20168;-81
2021/11/26 02:12:48;;;;;;;57.80;26.03;;;2.60;99.90;;;;;;4996374;28;20171;-80
2021/11/26 02:15:22;;;;;;;111.73;43.60;;;2.10;99.90;;;;;;4996183;28;20223;-81
2021/11/26 02:17:50;;;;;;;58.53;27.33;;;2.00;99.90;;;;;;4996602;28;20219;-81
2021/11/26 02:20:19;;;;;;;61.37;26.10;;;2.00;99.90;;;;;;4995624;28;20626;-81
2021/11/26 02:22:45;;;;;;;60.43;26.53;;;2.10;99.90;;;;;;4995651;28;20228;-81
2021/11/26 02:25:11;;;;;;;58.20;26.00;;;2.20;99.90;;;;;;4996487;28;20214;-81
2021/11/26 02:27:38;;;;;;;56.70;24.43;;;2.30;99.90;;;;;;4995704;28;20670;-82
2021/11/26 02:30:14;;;;;;;50.07;24.90;;;2.30;99.90;;;;;;4997031;28;20173;-81
2021/11/26 02:32:41;;;;;;;54.90;25.37;;;2.30;99.90;;;;;;4996838;28;20204;-81
2021/11/26 02:35:07;;;;;;;57.07;26.07;;;2.40;99.90;;;;;;4998207;28;20176;-81
2021/11/26 02:37:33;;;;;;;53.63;26.33;;;2.40;99.90;;;;;;5018091;28;20680;-81
2021/11/26 02:39:58;;;;;;;52.00;23.97;;;2.50;99.90;;;;;;4998296;28;20171;-81
2021/11/26 02:42:26;;;;;;;51.80;24.63;;;2.80;99.90;;;;;;5023217;28;20213;-81
2021/11/26 02:44:52;;;;;;;54.03;26.03;;;2.50;99.90;;;;;;5017205;28;20177;-81
2021/11/26 02:47:18;;;;;;;51.90;24.80;;;2.50;99.90;;;;;;5017156;28;20216;-81
2021/11/26 02:49:43;;;;;;;53.27;25.03;;;2.50;99.90;;;;;;5017393;28;20238;-81
2021/11/26 02:52:09;;;;;;;58.20;27.50;;;2.80;99.90;;;;;;5016568;28;20627;-81
2021/11/26 02:54:35;;;;;;;64.80;28.93;;;3.00;99.90;;;;;;5017324;28;20176;-81
2021/11/26 02:57:01;;;;;;;66.27;29.07;;;2.10;99.90;;;;;;5016815;28;20286;-81
2021/11/26 02:59:26;;;;;;;53.87;25.80;;;2.00;99.90;;;;;;5017709;28;20202;-81
2021/11/26 03:01:52;;;;;;;48.70;23.30;;;2.00;99.90;;;;;;5019014;28;20693;-81
2021/11/26 03:04:18;;;;;;;55.83;25.57;;;2.10;99.90;;;;;;5021321;28;20175;-80
2021/11/26 03:06:43;;;;;;;54.73;25.57;;;2.10;99.90;;;;;;5019960;28;20199;-81
2021/11/26 03:09:09;;;;;;;55.90;26.20;;;2.10;99.90;;;;;;5021088;28;20175;-81
2021/11/26 03:11:35;;;;;;;52.70;24.90;;;2.00;99.90;;;;;;5021595;28;20175;-81
2021/11/26 03:14:00;;;;;;;49.00;23.53;;;2.10;99.90;;;;;;5020682;28;20210;-82
2021/11/26 03:16:26;;;;;;;53.23;24.80;;;2.20;99.90;;;;;;5021141;28;20218;-81
2021/11/26 03:18:52;;;;;;;56.37;25.23;;;2.20;99.90;;;;;;5020020;28;20549;-81
2021/11/26 03:21:18;;;;;;;50.37;23.93;;;2.30;99.90;;;;;;5021091;28;20187;-80
2021/11/26 03:23:44;;;;;;;48.17;24.40;;;2.80;99.90;;;;;;5004922;28;20211;-81
2021/11/26 03:26:09;;;;;;;45.60;23.10;;;2.30;99.90;;;;;;4999724;28;20607;-81
2021/11/26 03:28:35;;;;;;;52.93;24.87;;;2.40;99.90;;;;;;4996160;28;20180;-83
2021/11/26 03:31:01;;;;;;;50.53;23.83;;;2.40;99.90;;;;;;4998768;28;20663;-83
2021/11/26 03:33:28;;;;;;;50.97;25.13;;;2.40;99.90;;;;;;5000781;28;20180;-81
2021/11/26 03:35:54;;;;;;;48.67;24.43;;;2.40;99.90;;;;;;5000845;28;20190;-80
2021/11/26 03:38:19;;;;;;;55.40;26.00;;;2.40;99.90;;;;;;5000112;28;20647;-82
2021/11/26 03:40:45;;;;;;;57.40;25.20;;;2.40;99.90;;;;;;5003328;28;20599;-80
2021/11/26 03:43:11;;;;;;;56.70;24.43;;;2.20;99.90;;;;;;5003724;28;20195;-81
2021/11/26 03:45:37;;;;;;;57.50;25.73;;;2.20;99.90;;;;;;5003301;28;20232;-81
2021/11/26 03:48:03;;;;;;;56.60;24.90;;;2.30;99.90;;;;;;5000765;28;20208;-82
2021/11/26 03:50:29;;;;;;;60.07;25.47;;;2.20;99.90;;;;;;5001375;28;20211;-82
2021/11/26 03:52:55;;;;;;;56.33;25.80;;;2.10;99.90;;;;;;5001575;28;20195;-81
2021/11/26 03:55:24;;;;;;;51.73;24.30;;;2.00;99.90;;;;;;5001436;28;20176;-82
2021/11/26 03:57:50;;;;;;;56.53;25.23;;;2.10;99.90;;;;;;5001601;28;20569;-81
2021/11/26 04:00:17;;;;;;;49.87;23.80;;;2.40;99.90;;;;;;5000535;28;20183;-81
2021/11/26 04:02:43;;;;;;;55.50;24.90;;;2.10;99.90;;;;;;5001041;28;20200;-81
2021/11/26 04:05:10;;;;;;;53.50;22.83;;;2.10;99.90;;;;;;5000866;28;20171;-81
2021/11/26 04:07:35;;;;;;;55.13;24.97;;;2.20;99.90;;;;;;5000648;28;20275;-80
2021/11/26 04:10:01;;;;;;;53.50;24.00;;;2.20;99.90;;;;;;5000767;28;20219;-81
2021/11/26 04:12:28;;;;;;;58.03;25.07;;;2.20;99.90;;;;;;5000005;28;20740;-81
2021/11/26 04:14:55;;;;;;;55.67;24.53;;;2.10;99.90;;;;;;4999901;28;20279;-81
2021/11/26 04:17:22;;;;;;;59.30;25.50;;;2.10;99.90;;;;;;5000665;28;20307;-81
2021/11/26 04:19:48;;;;;;;55.03;23.27;;;2.00;99.90;;;;;;4999864;28;20198;-81
2021/11/26 04:22:14;;;;;;;55.47;24.43;;;2.10;99.90;;;;;;5027869;28;20204;-81
2021/11/26 04:24:39;;;;;;;52.50;24.53;;;2.10;99.90;;;;;;5018986;28;20167;-81
2021/11/26 04:27:05;;;;;;;54.30;24.20;;;2.00;99.90;;;;;;5019117;28;20187;-81
2021/11/26 04:29:31;;;;;;;57.43;24.87;;;2.00;99.90;;;;;;5013274;28;20175;-81
2021/11/26 04:31:57;;;;;;;59.43;24.90;;;1.90;99.90;;;;;;4992741;28;20176;-81
2021/11/26 04:34:22;;;;;;;57.40;24.80;;;1.90;99.90;;;;;;5007513;28;20175;-81
2021/11/26 04:36:48;;;;;;;58.97;24.87;;;1.90;99.90;;;;;;5008460;28;20190;-80
2021/11/26 04:39:14;;;;;;;55.27;25.03;;;2.50;99.90;;;;;;5006108;28;20174;-80
2021/11/26 04:41:39;;;;;;;55.00;23.53;;;1.70;99.90;;;;;;5039692;28;20222;-80
2021/11/26 04:44:05;;;;;;;55.07;24.00;;;1.80;99.90;;;;;;5025515;28;20213;-80
2021/11/26 04:46:31;;;;;;;57.47;24.63;;;1.80;99.90;;;;;;5024230;28;20208;-80
2021/11/26 04:48:56;;;;;;;60.50;24.67;;;1.80;99.90;;;;;;5019177;28;20169;-81
2021/11/26 04:51:22;;;;;;;51.10;24.23;;;1.90;99.90;;;;;;5019631;28;20218;-80
2021/11/26 04:53:47;;;;;;;53.93;23.57;;;2.00;99.90;;;;;;5019964;28;20226;-80
2021/11/26 04:56:13;;;;;;;57.83;25.17;;;2.30;99.90;;;;;;5019444;28;20278;-79
2021/11/26 04:58:39;;;;;;;49.57;22.07;;;2.20;99.90;;;;;;5019645;28;20177;-81
2021/11/26 05:01:05;;;;;;;48.83;23.43;;;2.10;99.90;;;;;;5008730;28;20263;-81
2021/11/26 05:03:32;;;;;;;52.27;23.00;;;2.20;99.90;;;;;;4999428;28;20176;-80
2021/11/26 05:05:59;;;;;;;54.03;23.77;;;2.20;99.90;;;;;;4999648;28;20673;-80
2021/11/26 05:08:26;;;;;;;48.17;22.20;;;2.30;99.90;;;;;;4998547;28;20176;-81
2021/11/26 05:10:53;;;;;;;51.40;24.40;;;2.30;99.90;;;;;;4998147;28;20660;-80
2021/11/26 05:13:27;;;;;;;48.30;22.37;;;2.30;99.90;;;;;;5022168;28;20258;-80
2021/11/26 05:15:54;;;;;;;50.63;24.03;;;2.30;99.90;;;;;;5009421;28;20660;-81
2021/11/26 05:18:23;;;;;;;47.07;22.87;;;2.30;99.90;;;;;;4998374;28;20185;-80
2021/11/26 05:20:50;;;;;;;49.53;22.97;;;2.40;99.90;;;;;;4992732;28;20639;-81
2021/11/26 05:23:16;;;;;;;51.37;23.80;;;2.90;99.90;;;;;;4996862;28;20209;-80
2021/11/26 05:25:42;;;;;;;47.37;21.97;;;2.40;99.90;;;;;;4996471;28;20165;-80
2021/11/26 05:28:08;;;;;;;43.20;21.30;;;2.40;99.90;;;;;;4998318;28;20257;-80
2021/11/26 05:30:34;;;;;;;49.60;22.60;;;2.40;99.90;;;;;;4997361;28;20177;-82
2021/11/26 05:33:01;;;;;;;50.70;23.33;;;2.40;99.90;;;;;;4996388;28;20208;-82
2021/11/26 05:35:27;;;;;;;47.40;22.50;;;2.40;99.90;;;;;;4997299;28;20200;-81
2021/11/26 05:37:53;;;;;;;46.23;23.53;;;2.40;99.90;;;;;;4996086;28;20211;-81
2021/11/26 05:40:19;;;;;;;50.80;23.33;;;2.30;99.90;;;;;;4997498;28;20175;-81
2021/11/26 05:42:46;;;;;;;51.73;23.47;;;2.40;99.90;;;;;;4997232;28;20196;-81
2021/11/26 05:45:14;;;;;;;51.93;23.17;;;2.40;99.90;;;;;;4995972;28;20270;-81
2021/11/26 05:47:40;;;;;;;48.73;22.87;;;2.40;99.90;;;;;;4997257;28;20215;-82
2021/11/26 05:50:08;;;;;;;43.87;21.67;;;2.40;99.90;;;;;;4996721;28;20176;-81
2021/11/26 05:52:35;;;;;;;46.93;22.23;;;2.40;99.90;;;;;;5018154;28;20171;-81
2021/11/26 05:55:03;;;;;;;52.07;23.63;;;2.40;99.90;;;;;;4997226;28;20177;-81
2021/11/26 05:57:28;;;;;;;47.40;22.63;;;2.50;99.90;;;;;;4998682;28;20280;-81
2021/11/26 05:59:54;;;;;;;44.40;21.40;;;2.40;99.90;;;;;;5011160;28;20218;-82
2021/11/26 06:02:20;;;;;;;46.20;21.37;;;2.40;99.90;;;;;;5013732;28;20195;-81
2021/11/26 06:04:45;;;;;;;53.57;23.17;;;2.40;99.90;;;;;;5000689;28;20651;-82
2021/11/26 06:07:11;;;;;;;50.67;22.30;;;2.50;99.90;;;;;;5012151;28;20203;-83
2021/11/26 06:09:38;;;;;;;52.53;22.90;;;2.50;99.90;;;;;;5019189;28;20599;-81
2021/11/26 06:12:05;;;;;;;52.23;23.33;;;3.30;99.90;;;;;;5007631;28;20646;-81
2021/11/26 06:14:31;;;;;;;51.97;23.27;;;2.40;99.90;;;;;;4997553;28;20265;-81
2021/11/26 06:16:56;;;;;;;50.43;23.80;;;2.40;99.90;;;;;;5000515;28;20242;-81
2021/11/26 06:19:22;;;;;;;53.73;23.07;;;2.40;99.90;;;;;;5009581;28;20224;-80
2021/11/26 06:21:48;;;;;;;81.87;32.27;;;2.40;99.90;;;;;;4999914;28;20197;-81
2021/11/26 06:24:13;;;;;;;50.47;23.93;;;2.40;99.90;;;;;;4997819;28;20215;-82
2021/11/26 06:26:40;;;;;;;44.90;21.93;;;2.40;99.90;;;;;;4999053;28;20187;-81
2021/11/26 06:29:05;;;;;;;47.53;22.30;;;2.40;99.90;;;;;;5006576;28;20234;-82
2021/11/26 06:31:31;;;;;;;49.20;23.23;;;2.40;99.90;;;;;;5018172;28;20175;-81
2021/11/26 06:33:57;;;;;;;53.70;24.23;;;2.40;99.90;;;;;;5018615;28;20262;-80
2021/11/26 06:36:23;;;;;;;50.70;23.60;;;2.50;99.90;;;;;;5019859;28;20202;-79
2021/11/26 06:38:49;;;;;;;49.77;24.43;;;2.40;99.90;;;;;;5007315;28;20179;-80
2021/11/26 06:41:14;;;;;;;50.80;24.10;;;2.40;99.90;;;;;;5028910;28;20211;-81
2021/11/26 06:43:40;;;;;;;54.87;24.67;;;2.30;99.90;;;;;;5003072;28;20186;-82
2021/11/26 06:46:06;;;;;;;50.73;23.97;;;2.30;99.90;;;;;;5001838;28;20212;-82
2021/11/26 06:48:32;;;;;;;49.83;23.07;;;2.60;99.90;;;;;;5003568;28;20180;-80
2021/11/26 06:50:57;;;;;;;52.93;23.47;;;2.20;99.90;;;;;;5004315;28;20650;-82
2021/11/26 06:53:23;;;;;;;49.53;25.77;;;2.20;99.90;;;;;;5001323;28;20698;-82
2021/11/26 06:55:50;;;;;;;51.00;22.80;;;2.20;99.90;;;;;;5003327;28;20551;-82
2021/11/26 06:58:15;;;;;;;52.57;23.47;;;2.80;99.90;;;;;;5017337;28;20210;-81
2021/11/26 07:00:41;;;;;;;48.67;22.30;;;2.30;99.90;;;;;;5007794;28;20188;-81
2021/11/26 07:03:07;;;;;;;53.80;23.50;;;2.60;99.90;;;;;;5002282;28;20249;-81
2021/11/26 07:05:32;;;;;;;49.37;23.13;;;2.30;99.90;;;;;;5001589;28;20190;-81
2021/11/26 07:07:58;;;;;;;52.93;23.97;;;2.30;99.90;;;;;;5003944;28;20195;-81
2021/11/26 07:10:24;;;;;;;47.27;22.20;;;2.30;99.90;;;;;;5003180;28;20617;-81
2021/11/26 07:12:49;;;;;;;52.07;23.47;;;2.30;99.90;;;;;;5030112;28;20704;-81
2021/11/26 07:15:16;;;;;;;50.90;23.77;;;2.60;99.90;;;;;;5023655;28;20186;-81
2021/11/26 07:17:42;;;;;;;50.60;22.70;;;2.20;99.90;;;;;;5024296;28;20213;-81
2021/11/26 07:20:09;;;;;;;48.57;22.90;;;2.50;99.90;;;;;;5023428;28;20232;-81
2021/11/26 07:22:36;;;;;;;45.33;20.97;;;2.30;99.90;;;;;;5024075;28;20282;-81
2021/11/26 07:25:02;;;;;;;50.60;21.87;;;2.30;99.90;;;;;;5023525;28;20686;-80
2021/11/26 07:27:28;;;;;;;54.43;23.73;;;2.30;99.90;;;;;;5014425;28;20211;-81
2021/11/26 07:29:54;;;;;;;51.70;24.40;;;2.30;99.90;;;;;;5003210;28;20169;-80
2021/11/26 07:32:21;;;;;;;52.33;22.97;;;2.30;99.90;;;;;;5003590;28;20172;-80
2021/11/26 07:34:47;;;;;;;51.03;24.07;;;2.40;99.90;;;;;;5020614;28;20561;-81
2021/11/26 07:37:12;;;;;;;55.03;24.93;;;2.30;99.90;;;;;;5002043;28;20204;-80
2021/11/26 07:39:39;;;;;;;54.43;23.17;;;2.40;99.90;;;;;;5003066;28;20183;-81
2021/11/26 07:42:07;;;;;;;50.53;22.87;;;2.30;99.90;;;;;;5003508;28;20211;-80
2021/11/26 07:44:35;;;;;;;47.63;22.60;;;2.30;99.90;;;;;;5003703;28;20188;-80
2021/11/26 07:47:02;;;;;;;51.87;23.20;;;2.40;99.90;;;;;;5000207;28;20209;-81
2021/11/26 07:49:28;;;;;;;50.93;23.17;;;2.30;99.90;;;;;;5001136;28;20642;-81
2021/11/26 07:51:59;;;;;;;48.60;22.70;;;2.40;99.90;;;;;;5023777;23;20231;-76
2021/11/26 07:54:25;;;;;;;51.80;23.80;;;2.30;99.90;;;;;;5011257;28;20270;-76
2021/11/26 07:56:52;;;;;;;49.70;23.63;;;2.30;99.90;;;;;;5013991;28;20638;-76
2021/11/26 07:59:19;;;;;;;46.00;21.87;;;2.30;99.90;;;;;;5013946;28;20178;-76
2021/11/26 08:01:44;;;;;;;51.93;23.63;;;2.30;99.90;;;;;;5015883;28;20227;-76
2021/11/26 08:04:10;;;;;;;51.33;22.57;;;2.30;99.90;;;;;;5016006;28;20208;-76
2021/11/26 08:06:36;;;;;;;51.83;22.07;;;2.40;99.90;;;;;;5012487;28;20229;-76
2021/11/26 08:09:06;;;;;;;49.83;22.83;;;2.30;99.90;;;;;;5016038;28;20242;-75
2021/11/26 08:11:32;;;;;;;44.80;21.40;;;2.30;99.90;;;;;;5015771;28;20198;-76
2021/11/26 08:13:58;;;;;;;50.73;21.83;;;2.40;99.90;;;;;;5015559;28;20183;-76
2021/11/26 08:16:23;;;;;;;45.40;22.80;;;2.40;99.90;;;;;;5015641;28;20179;-76
2021/11/26 08:18:49;;;;;;;48.10;22.13;;;2.30;99.90;;;;;;5012681;28;20235;-76
2021/11/26 08:21:15;;;;;;;49.03;21.73;;;2.30;99.90;;;;;;5014443;28;20733;-75
2021/11/26 08:23:40;;;;;;;48.47;21.80;;;2.30;99.90;;;;;;5014895;28;20672;-76
2021/11/26 08:26:06;;;;;;;43.83;21.50;;;2.40;99.90;;;;;;5015326;28;20255;-76
2021/11/26 08:28:31;;;;;;;48.53;22.47;;;2.40;99.90;;;;;;5015163;28;20605;-76
2021/11/26 08:30:57;;;;;;;41.20;20.80;;;2.50;99.90;;;;;;5014587;28;20631;-76
2021/11/26 08:33:25;;;;;;;44.93;21.90;;;2.40;99.90;;;;;;5012134;28;20246;-77
2021/11/26 08:35:51;;;;;;;47.23;21.87;;;2.60;99.90;;;;;;5014389;28;20537;-77
2021/11/26 08:38:18;;;;;;;43.37;20.37;;;2.40;99.90;;;;;;5013830;28;20183;-74
2021/11/26 08:40:44;;;;;;;46.00;20.70;;;2.40;99.90;;;;;;5014135;28;20204;-76
2021/11/26 08:43:10;;;;;;;44.87;21.17;;;2.50;99.90;;;;;;5014185;28;20658;-75
2021/11/26 08:45:37;;;;;;;43.03;21.03;;;2.30;99.90;;;;;;5013291;28;20225;-76
2021/11/26 08:48:03;;;;;;;45.20;21.50;;;2.30;99.90;;;;;;5015035;28;20170;-76
2021/11/26 08:50:29;;;;;;;45.67;21.83;;;2.30;99.90;;;;;;5015199;28;20180;-76
2021/11/26 08:52:55;;;;;;;47.97;22.20;;;2.40;99.90;;;;;;5008386;28;20183;-75
2021/11/26 08:55:21;;;;;;;48.20;22.37;;;2.40;99.90;;;;;;5013193;28;20258;-77
2021/11/26 08:57:53;;;;;;;50.30;22.90;;;2.40;99.90;;;;;;5013289;28;20303;-75
2021/11/26 09:00:23;;;;;;;49.27;23.17;;;2.40;99.90;;;;;;5013522;28;20179;-75
2021/11/26 09:02:49;;;;;;;66.77;29.83;;;2.50;99.90;;;;;;5014509;28;20202;-76
2021/11/26 09:05:15;;;;;;;58.80;25.97;;;2.60;99.90;;;;;;5013578;28;20167;-75
2021/11/26 09:07:43;;;;;;;55.70;24.87;;;2.70;99.90;;;;;;5014744;28;20167;-75
2021/11/26 09:10:10;;;;;;;52.57;24.37;;;2.60;99.90;;;;;;5014556;28;20196;-75
2021/11/26 09:12:35;;;;;;;50.77;23.60;;;2.80;99.90;;;;;;5014563;28;20610;-75
2021/11/26 09:15:01;;;;;;;47.80;22.37;;;2.70;99.90;;;;;;5014498;28;20205;-75
2021/11/26 09:17:27;;;;;;;53.07;24.20;;;2.60;99.90;;;;;;5014724;28;20305;-75
2021/11/26 09:19:52;;;;;;;51.47;23.33;;;2.50;99.90;;;;;;5014458;28;20186;-75
2021/11/26 09:22:18;;;;;;;57.70;25.07;;;2.40;99.90;;;;;;5014292;28;20231;-75
2021/11/26 09:24:44;;;;;;;47.43;23.93;;;2.40;99.90;;;;;;5014374;28;20174;-75
2021/11/26 09:27:09;;;;;;;47.53;22.87;;;2.30;99.90;;;;;;5014462;28;20693;-75
2021/11/26 09:29:35;;;;;;;52.10;23.90;;;3.00;99.90;;;;;;5014306;28;20174;-75
2021/11/26 09:32:01;;;;;;;51.37;25.23;;;2.30;99.90;;;;;;5014247;28;20277;-74
2021/11/26 09:34:28;;;;;;;51.37;23.80;;;2.20;99.90;;;;;;5014389;28;20730;-75
2021/11/26 09:36:55;;;;;;;60.00;24.37;;;2.30;99.90;;;;;;5014087;28;20203;-76
2021/11/26 09:39:21;;;;;;;54.00;24.40;;;2.40;99.90;;;;;;5009690;28;20177;-75
2021/11/26 09:41:48;;;;;;;54.00;23.90;;;2.40;99.90;;;;;;5000608;28;20214;-75
2021/11/26 09:44:14;;;;;;;52.73;24.07;;;2.40;99.90;;;;;;4994399;28;20597;-75
2021/11/26 09:46:43;;;;;;;51.70;22.37;;;2.50;99.90;;;;;;4993204;28;20168;-75
2021/11/26 09:49:09;;;;;;;47.90;21.90;;;2.50;99.90;;;;;;5007017;28;20251;-74
2021/11/26 09:51:36;;;;;;;50.67;23.17;;;2.50;99.90;;;;;;5012456;28;20294;-75
2021/11/26 09:54:03;;;;;;;44.27;20.27;;;2.50;99.90;;;;;;5012566;28;20179;-75
2021/11/26 09:56:31;;;;;;;50.13;20.27;;;2.40;99.90;;;;;;5014054;28;20243;-75
2021/11/26 09:58:58;;;;;;;49.53;22.37;;;2.40;99.90;;;;;;5012524;28;20175;-75
2021/11/26 10:01:24;;;;;;;59.00;23.97;;;2.40;99.90;;;;;;5013634;28;20681;-75
2021/11/26 10:03:53;;;;;;;52.90;22.70;;;2.50;99.90;;;;;;5013935;28;20171;-75
2021/11/26 10:06:38;;;;;;;49.27;22.33;;;2.40;99.90;;;;;;5013761;28;20178;-74
2021/11/26 10:09:27;;;;;;;54.70;22.97;;;2.50;99.90;;;;;;5014047;28;20662;-74
2021/11/26 10:11:54;;;;;;;49.27;22.73;;;2.50;99.90;;;;;;5013049;28;20198;-75
2021/11/26 10:14:43;;;;;;;54.90;22.70;;;2.50;99.90;;;;;;5013727;28;20179;-76
2021/11/26 10:17:16;;;;;;;57.03;24.37;;;2.50;99.90;;;;;;5014127;28;20163;-75
2021/11/26 10:19:59;;;;;;;50.17;23.47;;;2.50;99.90;;;;;;5010574;28;20513;-76
2021/11/26 10:22:34;;;;;;;53.00;23.73;;;2.60;99.90;;;;;;5001885;28;20191;-75
2021/11/26 10:25:16;;;;;;;51.30;22.30;;;2.70;99.90;;;;;;5013590;28;20670;-75
2021/11/26 10:27:57;;;;;;;57.23;23.47;;;2.70;99.90;;;;;;5012292;28;20178;-76
2021/11/26 10:30:35;;;;;;;61.67;24.50;;;2.80;99.90;;;;;;5009768;28;20167;-75
2021/11/26 10:33:07;;;;;;;54.57;23.93;;;2.80;99.90;;;;;;4993842;28;20183;-76
2021/11/26 10:35:41;;;;;;;51.40;22.60;;;2.90;99.90;;;;;;4993856;28;20176;-75
2021/11/26 10:38:14;;;;;;;47.03;21.17;;;2.90;99.90;;;;;;4994416;28;20522;-75
2021/11/26 10:40:45;;;;;;;48.13;21.47;;;2.80;99.90;;;;;;4993654;28;20282;-75
2021/11/26 10:43:17;;;;;;;53.47;22.90;;;2.80;99.90;;;;;;4993944;28;20188;-75
2021/11/26 10:57:21;;;;;;;49.87;18.33;;;2.50;99.90;;;;;;5006167;28;20182;-75
2021/11/26 10:59:41;;;;;;;51.00;22.77;;;2.50;99.90;;;;;;5005767;28;20202;-75
2021/11/26 11:02:08;;;;;;;52.57;22.40;;;2.40;99.90;;;;;;4995223;28;20738;-76
2021/11/26 11:04:34;;;;;;;48.20;21.17;;;2.50;99.90;;;;;;5010900;28;20171;-74
2021/11/26 11:07:11;;;;;;;51.20;23.23;;;2.50;99.90;;;;;;5009586;28;20179;-75
2021/11/26 11:09:46;;;;;;;53.07;23.40;;;2.40;99.90;;;;;;4997978;28;20186;-76
2021/11/26 11:12:13;;;;;;;56.23;23.27;;;2.60;99.90;;;;;;5011878;28;20612;-76
2021/11/26 11:14:40;;;;;;;54.03;23.13;;;2.60;99.90;;;;;;5012933;28;20203;-76
2021/11/26 11:17:06;;;;;;;49.73;20.23;;;2.60;99.90;;;;;;5012904;28;20198;-76
2021/11/26 11:19:32;;;;;;;56.70;23.40;;;2.60;99.90;;;;;;5013142;28;20203;-76
2021/11/26 11:21:59;;;;;;;53.10;21.63;;;2.50;99.90;;;;;;5011606;28;20287;-76
2021/11/26 11:24:26;;;;;;;49.53;21.77;;;2.20;99.90;;;;;;5015334;28;20194;-76
2021/11/26 11:26:53;;;;;;;49.93;20.60;;;2.30;99.90;;;;;;5016662;28;20174;-75
2021/11/26 11:29:26;;;;;;;53.87;22.37;;;2.20;99.90;;;;;;5016805;28;20171;-76
2021/11/26 11:31:56;;;;;;;50.60;21.33;;;2.30;99.90;;;;;;5016894;28;20191;-76
2021/11/26 11:34:29;;;;;;;48.20;22.50;;;2.40;99.90;;;;;;5015233;28;20171;-76
2021/11/26 11:36:57;;;;;;;48.60;18.33;;;2.40;99.90;;;;;;5015244;28;20187;-76
2021/11/26 11:39:23;;;;;;;51.00;22.53;;;2.40;99.90;;;;;;5006278;28;20546;-76
2021/11/26 11:41:58;;;;;;;51.37;22.77;;;2.20;99.90;;;;;;5010934;28;20199;-76
2021/11/26 11:44:31;;;;;;;52.13;21.63;;;2.20;99.90;;;;;;4996063;28;20171;-76
2021/11/26 11:46:59;;;;;;;56.53;22.47;;;2.20;99.90;;;;;;5013403;28;20250;-76
2021/11/26 11:49:30;;;;;;;59.80;24.87;;;2.20;99.90;;;;;;5013290;28;20315;-76
2021/11/26 11:51:59;;;;;;;56.63;24.77;;;2.20;99.90;;;;;;5001023;28;20252;-77
2021/11/26 11:54:39;;;;;;;53.80;24.57;;;2.20;99.90;;;;;;4996630;28;20172;-76
2021/11/26 11:57:06;;;;;;;54.80;24.63;;;2.30;99.90;;;;;;4996877;28;20206;-76
2021/11/26 11:59:37;;;;;;;60.50;26.70;;;2.50;99.90;;;;;;4996456;28;20171;-76
2021/11/26 12:02:06;;;;;;;53.83;24.37;;;2.40;99.90;;;;;;4996297;28;20682;-76
2021/11/26 12:04:44;;;;;;;54.03;23.63;;;2.50;99.90;;;;;;5000545;28;20251;-76
2021/11/26 12:07:26;;;;;;;57.17;24.70;;;2.50;99.90;;;;;;5014561;28;20522;-76
2021/11/26 12:10:12;;;;;;;55.50;24.03;;;2.50;99.90;;;;;;5014533;28;20171;-75
2021/11/26 12:12:55;;;;;;;55.57;24.43;;;2.40;99.90;;;;;;5015672;28;20650;-76
2021/11/26 12:15:32;;;;;;;57.50;24.90;;;2.40;99.90;;;;;;5014519;28;20172;-76
2021/11/26 12:18:04;;;;;;;61.00;25.27;;;2.20;99.90;;;;;;5015568;28;20173;-75
2021/11/26 12:20:30;;;;;;;55.23;24.03;;;2.10;99.90;;;;;;5015527;28;20655;-76
2021/11/26 12:23:01;;;;;;;57.10;24.67;;;2.00;99.90;;;;;;5011071;28;20191;-75
2021/11/26 12:26:02;;;;;;;57.70;21.60;;;2.10;99.90;;;;;;5005975;28;20206;-76
2021/11/26 12:28:43;;;;;;;59.37;25.03;;;2.10;99.90;;;;;;4994798;28;20709;-76
2021/11/26 12:31:11;;;;;;;51.37;21.83;;;2.10;99.90;;;;;;4994506;28;20689;-77
2021/11/26 12:33:38;;;;;;;59.43;24.57;;;2.00;99.90;;;;;;4995742;28;20717;-76
2021/11/26 12:36:12;;;;;;;48.17;20.53;;;2.00;99.90;;;;;;4995406;28;20673;-76
2021/11/26 12:38:45;;;;;;;50.93;21.97;;;1.90;99.90;;;;;;4995991;28;20182;-75
2021/11/26 12:41:13;;;;;;;69.60;26.93;;;1.90;99.90;;;;;;4995656;28;20207;-75
2021/11/26 12:43:45;;;;;;;47.17;19.13;;;2.00;99.90;;;;;;4994279;28;20211;-76
2021/11/26 12:46:26;;;;;;;46.33;17.83;;;2.00;99.90;;;;;;4995791;28;20183;-76
2021/11/26 12:49:12;;;;;;;46.07;20.47;;;2.00;99.90;;;;;;4995511;28;20168;-76